Time;durP1;ratioP1;P1;durP2;ratioP2;P2;SDS_P1;SDS_P2;PMS_P1;PMS_P2;Temp;Humidity;BMP_temperature;BMP_pressure;BME280_temperature;BME280_humidity;BME280_pressure;Samples;Min_cycle;Max_cycle;Signal;HPM_P1;HPM_P2
2023/06/30 00:02:08;;;;;;;12.40;3.38;;;;;;;;;;5070794;28;20028;-79
2023/06/30 00:04:35;;;;;;;14.98;3.92;;;;;;;;;;5070740;28;20440;-79
2023/06/30 00:07:01;;;;;;;9.93;3.08;;;;;;;;;;5070589;28;20067;-79
2023/06/30 00:09:28;;;;;;;9.38;3.42;;;;;;;;;;5070111;28;20031;-78
2023/06/30 00:11:55;;;;;;;11.65;4.05;;;;;;;;;;5070138;28;20052;-77
2023/06/30 00:14:21;;;;;;;10.73;3.58;;;;;;;;;;5069671;28;20033;-79
2023/06/30 00:16:49;;;;;;;10.57;3.60;;;;;;;;;;5069224;28;20210;-78
2023/06/30 00:19:15;;;;;;;14.10;4.40;;;;;;;;;;5070384;28;20046;-79
2023/06/30 00:21:43;;;;;;;7.63;3.00;;;;;;;;;;5070506;28;20493;-78
2023/06/30 00:24:15;;;;;;;13.55;4.95;;;;;;;;;;5069444;28;20052;-77
2023/06/30 00:26:41;;;;;;;10.10;3.55;;;;;;;;;;5069641;28;20032;-78
2023/06/30 00:29:07;;;;;;;13.27;3.83;;;;;;;;;;5069401;28;20024;-79
2023/06/30 00:31:33;;;;;;;9.45;3.33;;;;;;;;;;5070110;28;20036;-80
2023/06/30 00:33:59;;;;;;;10.38;3.92;;;;;;;;;;5069116;28;20421;-78
2023/06/30 00:36:26;;;;;;;8.07;3.38;;;;;;;;;;5069406;28;20054;-79
2023/06/30 00:38:54;;;;;;;8.90;2.80;;;;;;;;;;5069384;28;20028;-78
2023/06/30 00:41:21;;;;;;;11.07;3.72;;;;;;;;;;5069398;28;20837;-77
2023/06/30 00:43:48;;;;;;;8.13;3.60;;;;;;;;;;5068880;28;20170;-78
2023/06/30 00:46:16;;;;;;;13.35;3.50;;;;;;;;;;5067939;28;20440;-80
2023/06/30 00:48:42;;;;;;;10.85;3.45;;;;;;;;;;5056041;28;20657;-79
2023/06/30 00:51:09;;;;;;;11.48;3.28;;;;;;;;;;5068386;28;20527;-78
2023/06/30 00:53:35;;;;;;;11.60;3.65;;;;;;;;;;5055099;28;20107;-79
2023/06/30 00:56:01;;;;;;;8.98;3.50;;;;;;;;;;5067322;28;20029;-78
2023/06/30 00:58:27;;;;;;;8.05;3.05;;;;;;;;;;5069235;28;20468;-78
2023/06/30 01:00:58;;;;;;;8.95;3.55;;;;;;;;;;5068298;28;20490;-79
2023/06/30 01:03:28;;;;;;;10.32;3.88;;;;;;;;;;5066368;28;20033;-79
2023/06/30 01:05:56;;;;;;;9.93;4.13;;;;;;;;;;5069642;28;20108;-78
2023/06/30 01:08:30;;;;;;;10.75;3.85;;;;;;;;;;5069426;28;20028;-78
2023/06/30 01:10:56;;;;;;;10.88;3.75;;;;;;;;;;5068869;28;20032;-78
2023/06/30 01:13:23;;;;;;;10.82;3.60;;;;;;;;;;5067731;28;20028;-78
2023/06/30 01:15:49;;;;;;;10.40;3.55;;;;;;;;;;5068353;28;20078;-78
2023/06/30 01:18:16;;;;;;;10.13;3.65;;;;;;;;;;5068171;28;20067;-77
2023/06/30 01:20:42;;;;;;;11.88;3.80;;;;;;;;;;5068875;28;20021;-76
2023/06/30 01:23:17;;;;;;;10.35;3.67;;;;;;;;;;5068402;28;20094;-76
2023/06/30 01:25:45;;;;;;;11.10;4.28;;;;;;;;;;5068652;28;20503;-76
2023/06/30 01:28:13;;;;;;;9.63;3.88;;;;;;;;;;5068614;28;20411;-77
2023/06/30 01:30:39;;;;;;;10.35;4.53;;;;;;;;;;5068486;28;20033;-78
2023/06/30 01:33:05;;;;;;;9.45;4.53;;;;;;;;;;5066993;28;20048;-77
2023/06/30 01:35:32;;;;;;;10.25;3.90;;;;;;;;;;5068487;28;20537;-78
2023/06/30 01:37:59;;;;;;;11.52;3.90;;;;;;;;;;5068473;28;20899;-77
2023/06/30 01:40:25;;;;;;;11.48;4.40;;;;;;;;;;5069246;28;20087;-78
2023/06/30 01:42:56;;;;;;;9.25;4.20;;;;;;;;;;5062844;28;20532;-78
2023/06/30 01:45:24;;;;;;;14.50;4.28;;;;;;;;;;5068316;28;20045;-78
2023/06/30 01:47:50;;;;;;;9.20;4.10;;;;;;;;;;5068471;28;20115;-77
2023/06/30 01:50:16;;;;;;;12.23;4.03;;;;;;;;;;5068514;28;20047;-78
2023/06/30 01:52:43;;;;;;;10.45;4.43;;;;;;;;;;5051644;28;20483;-77
2023/06/30 01:55:09;;;;;;;8.90;3.55;;;;;;;;;;5069581;28;20033;-78
2023/06/30 01:57:35;;;;;;;10.45;4.07;;;;;;;;;;5069584;28;20070;-78
2023/06/30 02:00:02;;;;;;;13.73;4.10;;;;;;;;;;5067171;28;20032;-78
2023/06/30 02:02:28;;;;;;;9.43;3.47;;;;;;;;;;5070464;28;20060;-78
2023/06/30 02:04:54;;;;;;;14.02;4.70;;;;;;;;;;5060927;28;20479;-76
2023/06/30 02:07:20;;;;;;;13.98;4.00;;;;;;;;;;5062435;28;20025;-77
2023/06/30 02:09:46;;;;;;;11.07;4.13;;;;;;;;;;5061500;28;20139;-78
2023/06/30 02:12:12;;;;;;;16.77;5.72;;;;;;;;;;5058580;28;20486;-78
2023/06/30 02:14:38;;;;;;;11.05;3.85;;;;;;;;;;5068670;28;20028;-77
2023/06/30 02:17:04;;;;;;;12.23;4.15;;;;;;;;;;5068220;28;20025;-78
2023/06/30 02:19:30;;;;;;;10.20;3.97;;;;;;;;;;5067963;28;20033;-78
2023/06/30 02:21:56;;;;;;;9.10;3.92;;;;;;;;;;5068702;28;20020;-77
2023/06/30 02:24:22;;;;;;;16.60;4.80;;;;;;;;;;5068239;28;20137;-78
2023/06/30 02:26:49;;;;;;;14.73;4.60;;;;;;;;;;5068235;28;20107;-78
2023/06/30 02:29:15;;;;;;;11.13;5.22;;;;;;;;;;5068777;28;20035;-78
2023/06/30 02:31:41;;;;;;;11.57;4.50;;;;;;;;;;5068240;28;20027;-78
2023/06/30 02:34:07;;;;;;;11.73;4.15;;;;;;;;;;5067895;28;20029;-78
2023/06/30 02:36:33;;;;;;;13.65;5.68;;;;;;;;;;5068735;28;20391;-77
2023/06/30 02:38:59;;;;;;;8.88;4.20;;;;;;;;;;5067887;28;20453;-78
2023/06/30 02:41:25;;;;;;;9.13;3.60;;;;;;;;;;5068805;28;20024;-77
2023/06/30 02:43:51;;;;;;;9.52;4.13;;;;;;;;;;5067645;28;20039;-78
2023/06/30 02:46:17;;;;;;;8.88;4.00;;;;;;;;;;5057703;28;20081;-78
2023/06/30 02:48:45;;;;;;;10.50;3.85;;;;;;;;;;5070737;28;20028;-78
2023/06/30 02:51:11;;;;;;;8.02;3.53;;;;;;;;;;5071351;28;20024;-79
2023/06/30 02:53:38;;;;;;;8.93;3.83;;;;;;;;;;5058699;28;20035;-78
2023/06/30 02:56:04;;;;;;;9.65;3.38;;;;;;;;;;5071609;28;20033;-78
2023/06/30 02:58:30;;;;;;;10.00;3.92;;;;;;;;;;5071577;28;20033;-79
2023/06/30 03:00:56;;;;;;;10.27;3.42;;;;;;;;;;5071027;28;20083;-78
2023/06/30 03:03:23;;;;;;;7.68;3.22;;;;;;;;;;5053948;28;20071;-77
2023/06/30 03:05:49;;;;;;;9.35;4.00;;;;;;;;;;5072066;28;20033;-77
2023/06/30 03:08:15;;;;;;;7.95;3.13;;;;;;;;;;5071025;28;20035;-78
2023/06/30 03:10:41;;;;;;;10.65;4.10;;;;;;;;;;5070898;28;20482;-78
2023/06/30 03:13:07;;;;;;;11.23;4.32;;;;;;;;;;5070641;28;20074;-77
2023/06/30 03:15:33;;;;;;;9.90;3.83;;;;;;;;;;5071214;28;20711;-77
2023/06/30 03:17:59;;;;;;;8.82;3.33;;;;;;;;;;5053164;28;20071;-77
2023/06/30 03:20:25;;;;;;;11.65;4.00;;;;;;;;;;5070971;28;20024;-77
2023/06/30 03:22:54;;;;;;;10.73;3.50;;;;;;;;;;5058702;28;20024;-78
2023/06/30 03:25:21;;;;;;;14.70;4.32;;;;;;;;;;5070812;28;20402;-78
2023/06/30 03:27:47;;;;;;;12.52;3.90;;;;;;;;;;5069861;28;20039;-76
2023/06/30 03:30:13;;;;;;;11.52;4.88;;;;;;;;;;5070445;28;20043;-78
2023/06/30 03:32:39;;;;;;;8.75;3.63;;;;;;;;;;5070781;28;20102;-78
2023/06/30 03:35:05;;;;;;;8.77;3.47;;;;;;;;;;5071998;28;20050;-78
2023/06/30 03:37:32;;;;;;;11.38;4.32;;;;;;;;;;5074335;28;20405;-77
2023/06/30 03:39:59;;;;;;;9.32;3.95;;;;;;;;;;5069090;28;20024;-77
2023/06/30 03:42:25;;;;;;;8.60;3.40;;;;;;;;;;5070132;28;20021;-79
2023/06/30 03:44:51;;;;;;;10.43;4.18;;;;;;;;;;5052314;28;20051;-77
2023/06/30 03:47:17;;;;;;;10.73;3.85;;;;;;;;;;5052480;28;20287;-78
2023/06/30 03:49:43;;;;;;;10.77;3.83;;;;;;;;;;5070809;28;20028;-76
2023/06/30 03:52:09;;;;;;;12.30;4.10;;;;;;;;;;5070602;28;20478;-78
2023/06/30 03:54:35;;;;;;;9.98;3.70;;;;;;;;;;5070558;28;20024;-78
2023/06/30 03:57:01;;;;;;;12.23;4.35;;;;;;;;;;5070073;28;20577;-78
2023/06/30 03:59:27;;;;;;;12.27;3.83;;;;;;;;;;5070206;28;20024;-78
2023/06/30 04:01:53;;;;;;;10.90;3.80;;;;;;;;;;5070449;28;20017;-79
2023/06/30 04:04:20;;;;;;;12.57;4.18;;;;;;;;;;5070342;28;20447;-78
2023/06/30 04:06:47;;;;;;;9.45;3.67;;;;;;;;;;5071141;28;20036;-78
2023/06/30 04:09:13;;;;;;;6.57;3.88;;;;;;;;;;5071313;28;20021;-78
2023/06/30 04:11:39;;;;;;;6.32;3.25;;;;;;;;;;5071561;28;20051;-77
2023/06/30 04:14:08;;;;;;;9.05;3.72;;;;;;;;;;5070943;28;20490;-78
2023/06/30 04:16:34;;;;;;;9.38;3.42;;;;;;;;;;5069841;28;20481;-79
2023/06/30 04:19:00;;;;;;;8.20;3.70;;;;;;;;;;5070220;28;20073;-78
2023/06/30 04:21:26;;;;;;;10.15;4.18;;;;;;;;;;5070907;28;20039;-79
2023/06/30 04:23:52;;;;;;;7.70;3.40;;;;;;;;;;5069585;28;20120;-77
2023/06/30 04:26:18;;;;;;;9.75;3.15;;;;;;;;;;5052432;28;20445;-78
2023/06/30 04:28:45;;;;;;;11.73;4.22;;;;;;;;;;5070751;28;20469;-78
2023/06/30 04:31:12;;;;;;;8.75;3.38;;;;;;;;;;5052025;28;20028;-79
2023/06/30 04:33:38;;;;;;;12.65;3.67;;;;;;;;;;5070950;28;20078;-78
2023/06/30 04:36:06;;;;;;;10.48;3.13;;;;;;;;;;5069601;28;20561;-78
2023/06/30 04:38:33;;;;;;;8.10;2.78;;;;;;;;;;5070366;28;20498;-79
2023/06/30 04:40:59;;;;;;;6.90;3.00;;;;;;;;;;5067731;28;20033;-78
2023/06/30 04:43:25;;;;;;;11.65;4.22;;;;;;;;;;5069669;28;20025;-78
2023/06/30 04:45:52;;;;;;;10.05;3.17;;;;;;;;;;5070085;28;20028;-78
2023/06/30 04:48:18;;;;;;;8.07;3.63;;;;;;;;;;5069692;28;20020;-78
2023/06/30 04:50:44;;;;;;;6.53;2.53;;;;;;;;;;5051019;28;20383;-78
2023/06/30 04:53:10;;;;;;;10.35;3.58;;;;;;;;;;5069441;28;20024;-77
2023/06/30 04:55:37;;;;;;;9.30;2.88;;;;;;;;;;5052383;28;20040;-79
2023/06/30 04:58:03;;;;;;;9.80;2.95;;;;;;;;;;5069384;28;20025;-80
2023/06/30 05:00:29;;;;;;;10.90;3.72;;;;;;;;;;5068460;28;20036;-78
2023/06/30 05:02:58;;;;;;;7.95;3.60;;;;;;;;;;5050743;28;20465;-77
2023/06/30 05:05:24;;;;;;;11.15;3.10;;;;;;;;;;5059560;28;20043;-77
2023/06/30 05:07:51;;;;;;;7.68;3.00;;;;;;;;;;5052026;28;20051;-78
2023/06/30 05:10:17;;;;;;;6.75;3.25;;;;;;;;;;5069951;28;20107;-76
2023/06/30 05:12:43;;;;;;;8.55;3.15;;;;;;;;;;5069547;28;20025;-79
2023/06/30 05:15:09;;;;;;;10.93;2.78;;;;;;;;;;5068984;28;20024;-78
2023/06/30 05:17:36;;;;;;;10.43;2.72;;;;;;;;;;5068821;28;20065;-80
2023/06/30 05:20:05;;;;;;;8.98;2.50;;;;;;;;;;5064628;28;20847;-80
2023/06/30 05:22:31;;;;;;;8.73;3.10;;;;;;;;;;5069269;28;20029;-80
2023/06/30 05:24:57;;;;;;;8.25;2.80;;;;;;;;;;5068501;28;20057;-79
2023/06/30 05:27:24;;;;;;;7.25;2.95;;;;;;;;;;5069336;28;20132;-79
2023/06/30 05:29:49;;;;;;;6.50;2.53;;;;;;;;;;5068955;28;20471;-79
2023/06/30 05:32:16;;;;;;;10.00;2.92;;;;;;;;;;5053975;28;20032;-79
2023/06/30 05:34:46;;;;;;;9.57;2.67;;;;;;;;;;5065904;28;20538;-79
2023/06/30 05:37:12;;;;;;;9.13;2.78;;;;;;;;;;5069016;28;20107;-79
2023/06/30 05:39:38;;;;;;;14.18;3.42;;;;;;;;;;5068309;28;20063;-78
2023/06/30 05:42:05;;;;;;;8.38;2.80;;;;;;;;;;5043037;28;20024;-79
2023/06/30 05:44:31;;;;;;;10.15;3.42;;;;;;;;;;5065469;28;20086;-78
2023/06/30 05:46:57;;;;;;;8.38;2.80;;;;;;;;;;5063849;28;20024;-80
2023/06/30 05:49:25;;;;;;;9.65;2.60;;;;;;;;;;5067335;28;20035;-77
2023/06/30 05:51:51;;;;;;;7.88;2.67;;;;;;;;;;5062379;28;20032;-77
2023/06/30 05:54:19;;;;;;;5.75;1.80;;;;;;;;;;5063687;28;20037;-79
2023/06/30 05:56:45;;;;;;;9.25;2.95;;;;;;;;;;5058379;28;20028;-78
2023/06/30 05:59:11;;;;;;;7.82;2.75;;;;;;;;;;5064734;28;20020;-77
2023/06/30 06:01:40;;;;;;;10.13;2.45;;;;;;;;;;5062354;28;20133;-77
2023/06/30 06:04:11;;;;;;;9.52;2.90;;;;;;;;;;5063786;28;20534;-77
2023/06/30 06:06:37;;;;;;;;;;;;;;;;;;5063485;28;20033;-78
2023/06/30 06:09:03;;;;;;;9.68;3.00;;;;;;;;;;5068544;28;19912;-78
2023/06/30 06:11:29;;;;;;;8.52;2.58;;;;;;;;;;5063428;28;20021;-77
2023/06/30 06:13:55;;;;;;;8.77;2.90;;;;;;;;;;5067550;28;20033;-79
2023/06/30 06:16:21;;;;;;;7.32;2.05;;;;;;;;;;5068367;28;20031;-77
2023/06/30 06:18:48;;;;;;;8.75;2.22;;;;;;;;;;5068553;28;20029;-77
2023/06/30 06:21:15;;;;;;;8.13;2.53;;;;;;;;;;5068333;28;20548;-78
2023/06/30 06:23:40;;;;;;;8.75;2.63;;;;;;;;;;5064404;28;20048;-78
2023/06/30 06:26:06;;;;;;;11.48;2.88;;;;;;;;;;5066625;28;20029;-78
2023/06/30 06:28:33;;;;;;;5.55;2.30;;;;;;;;;;5069126;28;20021;-78
2023/06/30 06:30:59;;;;;;;10.35;2.60;;;;;;;;;;5063954;28;20538;-77
2023/06/30 06:33:25;;;;;;;12.35;2.90;;;;;;;;;;5081531;28;20121;-78
2023/06/30 06:35:51;;;;;;;6.82;2.55;;;;;;;;;;5081278;28;20060;-77
2023/06/30 06:38:17;;;;;;;11.35;3.00;;;;;;;;;;5074030;28;20025;-77
2023/06/30 06:40:47;;;;;;;11.10;3.30;;;;;;;;;;5066761;28;20024;-79
2023/06/30 06:43:13;;;;;;;11.55;2.55;;;;;;;;;;5068068;28;20029;-79
2023/06/30 06:45:41;;;;;;;7.90;2.30;;;;;;;;;;5062938;28;20387;-76
2023/06/30 06:48:26;;;;;;;8.02;2.25;;;;;;;;;;5071902;28;20108;-77
2023/06/30 06:50:53;;;;;;;7.55;2.20;;;;;;;;;;5059718;28;20032;-77
2023/06/30 06:53:29;;;;;;;6.05;1.30;;;;;;;;;;5051591;28;20028;-77
2023/06/30 06:55:56;;;;;;;6.15;1.90;;;;;;;;;;5051764;28;20029;-76
2023/06/30 06:58:23;;;;;;;4.18;1.33;;;;;;;;;;5072272;28;20052;-77
2023/06/30 07:00:50;;;;;;;3.35;1.40;;;;;;;;;;5070796;28;20390;-78
2023/06/30 07:03:17;;;;;;;3.58;1.25;;;;;;;;;;5070580;28;20037;-78
2023/06/30 07:05:46;;;;;;;11.35;2.30;;;;;;;;;;5071076;28;20078;-77
2023/06/30 07:08:12;;;;;;;3.72;1.10;;;;;;;;;;5070609;28;20108;-77
2023/06/30 07:10:38;;;;;;;10.32;2.38;;;;;;;;;;5056627;28;20032;-77
2023/06/30 07:13:05;;;;;;;5.72;1.60;;;;;;;;;;5069511;28;20021;-77
2023/06/30 07:15:31;;;;;;;3.95;1.70;;;;;;;;;;5067218;28;20025;-77
2023/06/30 07:17:57;;;;;;;8.43;2.03;;;;;;;;;;5071161;28;20824;-77
2023/06/30 07:20:24;;;;;;;7.78;1.80;;;;;;;;;;5052179;28;20425;-77
2023/06/30 07:22:50;;;;;;;4.40;1.48;;;;;;;;;;5060561;28;20475;-78
2023/06/30 07:25:18;;;;;;;10.70;1.73;;;;;;;;;;5063912;28;20079;-78
2023/06/30 07:27:53;;;;;;;13.82;2.33;;;;;;;;;;5064305;28;20021;-78
2023/06/30 07:30:27;;;;;;;6.15;1.80;;;;;;;;;;5062456;28;20025;-77
2023/06/30 07:32:54;;;;;;;8.15;1.92;;;;;;;;;;5063990;28;20447;-76
2023/06/30 07:35:20;;;;;;;4.55;1.65;;;;;;;;;;5063683;28;20538;-78
2023/06/30 07:37:50;;;;;;;4.10;1.35;;;;;;;;;;5062636;28;20143;-78
2023/06/30 07:40:19;;;;;;;5.57;1.10;;;;;;;;;;5064212;28;20027;-78
2023/06/30 07:42:45;;;;;;;6.90;1.58;;;;;;;;;;5069614;28;20050;-76
2023/06/30 07:45:15;;;;;;;5.95;1.48;;;;;;;;;;5061025;28;20056;-77
2023/06/30 07:47:42;;;;;;;4.97;1.38;;;;;;;;;;5061997;28;20076;-76
2023/06/30 07:50:12;;;;;;;4.50;1.17;;;;;;;;;;5063106;28;20423;-78
2023/06/30 07:52:38;;;;;;;;;;;;;;;;;;5052313;28;20025;-78
2023/06/30 07:55:05;;;;;;;6.18;1.60;;;;;;;;;;5060465;28;20394;-77
2023/06/30 07:57:31;;;;;;;7.25;1.52;;;;;;;;;;5069657;28;20017;-78
2023/06/30 07:59:57;;;;;;;4.43;1.45;;;;;;;;;;5069744;28;20398;-79
2023/06/30 08:02:23;;;;;;;6.40;1.30;;;;;;;;;;5070417;28;20024;-78
2023/06/30 08:04:50;;;;;;;2.50;1.05;;;;;;;;;;5070415;28;20040;-78
2023/06/30 08:07:17;;;;;;;5.75;1.13;;;;;;;;;;5070762;28;20117;-77
2023/06/30 08:09:43;;;;;;;6.40;1.65;;;;;;;;;;5070083;28;20519;-79
2023/06/30 08:12:09;;;;;;;6.38;1.70;;;;;;;;;;5069429;28;20032;-77
2023/06/30 08:14:35;;;;;;;7.78;2.00;;;;;;;;;;5070520;28;20032;-77
2023/06/30 08:17:02;;;;;;;7.95;2.55;;;;;;;;;;5070392;28;20523;-78
2023/06/30 08:19:28;;;;;;;3.30;1.58;;;;;;;;;;5069268;28;20025;-79
2023/06/30 08:21:55;;;;;;;4.65;1.58;;;;;;;;;;5070339;28;20016;-77
2023/06/30 08:24:21;;;;;;;3.85;1.35;;;;;;;;;;5056954;28;20072;-76
2023/06/30 08:26:47;;;;;;;6.75;1.33;;;;;;;;;;5061090;28;20032;-76
2023/06/30 08:29:13;;;;;;;5.72;1.27;;;;;;;;;;5063467;28;20035;-77
2023/06/30 08:31:40;;;;;;;4.82;1.38;;;;;;;;;;5070069;28;20356;-77
2023/06/30 08:34:08;;;;;;;2.85;1.13;;;;;;;;;;5066174;28;20098;-77
2023/06/30 08:36:34;;;;;;;5.50;1.35;;;;;;;;;;5070033;28;20072;-76
2023/06/30 08:39:00;;;;;;;3.42;1.30;;;;;;;;;;5069618;28;20486;-77
2023/06/30 08:41:28;;;;;;;5.40;1.00;;;23.00;71.00;;;;;;5068470;28;20060;-73
2023/06/30 08:43:55;;;;;;;4.13;1.00;;;23.30;71.50;;;;;;5064797;28;20040;-75
2023/06/30 08:46:22;;;;;;;3.35;0.93;;;23.60;71.90;;;;;;5067195;28;20020;-76
2023/06/30 08:48:52;;;;;;;2.53;0.73;;;23.70;71.20;;;;;;5067666;28;20054;-74
2023/06/30 08:51:18;;;;;;;;;;;23.80;69.20;;;;;;5071200;28;20055;-78
2023/06/30 08:53:47;;;;;;;5.22;1.25;;;23.70;69.20;;;;;;5069433;28;19951;-77
2023/06/30 08:56:14;;;;;;;4.53;1.20;;;23.60;69.70;;;;;;5070941;28;20486;-79
2023/06/30 08:58:39;;;;;;;7.03;1.23;;;23.60;74.20;;;;;;5081057;28;20043;-81
2023/06/30 09:01:06;;;;;;;6.93;1.38;;;23.80;76.00;;;;;;5047628;28;20025;-81
2023/06/30 09:03:33;;;;;;;6.93;1.73;;;23.90;72.60;;;;;;5073545;28;20051;-77
2023/06/30 09:06:00;;;;;;;5.18;1.10;;;24.10;67.80;;;;;;5085084;28;20474;-79
2023/06/30 09:08:50;;;;;;;3.25;1.02;;;24.10;65.90;;;;;;5060303;28;20081;-81
2023/06/30 09:11:16;;;;;;;;;;;24.10;66.70;;;;;;5066592;28;20048;-79
2023/06/30 09:13:44;;;;;;;5.90;1.50;;;24.20;63.60;;;;;;5067996;28;20359;-77
2023/06/30 09:16:17;;;;;;;7.32;1.33;;;24.30;61.30;;;;;;5078511;28;20004;-76
2023/06/30 09:18:45;;;;;;;4.45;1.40;;;24.50;61.30;;;;;;5081807;28;20028;-79
2023/06/30 09:21:11;;;;;;;6.50;1.30;;;24.60;61.60;;;;;;5082752;28;20025;-79
2023/06/30 09:23:38;;;;;;;5.35;1.35;;;24.60;61.70;;;;;;5076297;28;20052;-78
2023/06/30 09:26:12;;;;;;;3.38;1.02;;;24.60;61.10;;;;;;5068658;28;20064;-78
2023/06/30 09:28:41;;;;;;;5.07;1.58;;;24.60;61.90;;;;;;5062711;28;20052;-78
2023/06/30 09:31:08;;;;;;;7.53;1.35;;;24.70;60.50;;;;;;5062964;28;20029;-80
2023/06/30 09:33:35;;;;;;;3.67;0.70;;;24.80;59.00;;;;;;5073818;28;20437;-79
2023/06/30 09:36:03;;;;;;;5.00;1.20;;;24.90;60.70;;;;;;5061629;28;20033;-80
2023/06/30 09:38:29;;;;;;;3.63;1.00;;;25.00;59.80;;;;;;5067633;28;20527;-80
2023/06/30 09:41:03;;;;;;;7.18;1.65;;;25.00;62.00;;;;;;5070932;28;20021;-78
2023/06/30 09:43:28;;;;;;;3.42;0.95;;;25.00;58.20;;;;;;5069371;28;20456;-76
2023/06/30 09:45:55;;;;;;;5.70;1.55;;;25.00;58.40;;;;;;5068708;28;20123;-80
2023/06/30 09:48:21;;;;;;;4.93;1.45;;;25.00;59.60;;;;;;5069061;28;20028;-79
2023/06/30 09:50:51;;;;;;;3.65;1.35;;;25.10;59.50;;;;;;5063742;28;20548;-81
2023/06/30 09:53:20;;;;;;;3.63;1.13;;;25.20;59.30;;;;;;5067305;28;20029;-78
2023/06/30 09:55:48;;;;;;;5.75;1.45;;;25.10;58.30;;;;;;5067133;28;20107;-79
2023/06/30 09:58:16;;;;;;;4.40;1.20;;;24.90;59.50;;;;;;5070606;28;20020;-78
2023/06/30 10:00:42;;;;;;;1.77;0.93;;;24.70;60.10;;;;;;5071624;28;20043;-76
2023/06/30 10:03:10;;;;;;;4.40;0.90;;;24.60;61.90;;;;;;5072009;28;20441;-83
2023/06/30 10:05:37;;;;;;;3.70;1.23;;;24.30;62.20;;;;;;5059334;28;20036;-77
2023/06/30 10:08:05;;;;;;;4.35;1.23;;;24.20;62.30;;;;;;5072690;28;20107;-78
2023/06/30 10:10:31;;;;;;;6.45;1.70;;;24.00;62.50;;;;;;5072221;28;20025;-77
2023/06/30 10:12:58;;;;;;;5.32;1.50;;;24.00;62.90;;;;;;5071714;28;20024;-77
2023/06/30 10:15:29;;;;;;;4.65;1.65;;;23.90;62.40;;;;;;5072051;28;20033;-79
2023/06/30 10:18:00;;;;;;;3.55;1.40;;;23.80;62.70;;;;;;5071727;28;20104;-78
2023/06/30 10:20:26;;;;;;;5.35;1.55;;;23.80;62.20;;;;;;5069551;28;20025;-77
2023/06/30 10:22:53;;;;;;;3.17;1.38;;;23.70;62.20;;;;;;5070714;28;20029;-78
2023/06/30 10:25:23;;;;;;;4.38;1.05;;;23.70;62.60;;;;;;5072375;28;20025;-76
2023/06/30 10:27:51;;;;;;;6.57;1.60;;;23.60;62.90;;;;;;5067851;28;20035;-77
2023/06/30 10:30:17;;;;;;;7.63;1.38;;;23.50;63.80;;;;;;5069125;28;20039;-78
2023/06/30 10:32:49;;;;;;;5.22;1.50;;;23.60;64.30;;;;;;5071571;28;20024;-77
2023/06/30 10:35:15;;;;;;;5.35;1.38;;;23.70;63.00;;;;;;5071578;28;20051;-74
2023/06/30 10:37:41;;;;;;;6.50;1.33;;;23.70;65.40;;;;;;5068305;28;20078;-75
2023/06/30 10:40:22;;;;;;;6.07;1.83;;;23.80;64.60;;;;;;5068800;28;20028;-77
2023/06/30 10:42:52;;;;;;;5.47;1.50;;;23.80;63.40;;;;;;5071197;28;20474;-78
2023/06/30 10:45:18;;;;;;;;;;;23.80;63.40;;;;;;5070405;28;20044;-77
2023/06/30 10:47:52;;;;;;;8.23;1.98;;;23.70;63.00;;;;;;5071463;28;19946;-77
2023/06/30 10:50:18;;;;;;;3.42;1.15;;;23.70;64.70;;;;;;5071247;28;20024;-76
2023/06/30 10:52:52;;;;;;;7.18;1.80;;;23.60;67.50;;;;;;5070799;28;20020;-78
2023/06/30 10:55:27;;;;;;;3.25;1.20;;;23.50;64.80;;;;;;5053823;28;20028;-77
2023/06/30 10:57:54;;;;;;;7.40;1.70;;;23.50;64.50;;;;;;5072116;28;20509;-77
2023/06/30 11:00:29;;;;;;;6.57;2.00;;;23.60;64.60;;;;;;5072122;28;20023;-77
2023/06/30 11:02:57;;;;;;;5.53;1.50;;;23.60;63.00;;;;;;5064265;28;20052;-76
2023/06/30 11:05:32;;;;;;;5.07;1.70;;;23.70;63.30;;;;;;5071927;28;20041;-76
2023/06/30 11:08:01;;;;;;;4.57;1.42;;;23.90;62.30;;;;;;5069891;28;20021;-76
2023/06/30 11:10:32;;;;;;;6.13;1.33;;;24.30;62.60;;;;;;5071999;28;20108;-75
2023/06/30 11:12:59;;;;;;;4.05;1.23;;;24.70;62.70;;;;;;5071108;28;20029;-77
2023/06/30 11:15:35;;;;;;;3.90;1.67;;;24.90;65.60;;;;;;5071341;28;20497;-76
2023/06/30 11:18:06;;;;;;;4.50;1.52;;;25.10;62.90;;;;;;5070472;28;20488;-77
2023/06/30 11:20:35;;;;;;;3.97;1.30;;;25.10;64.00;;;;;;5070676;28;20051;-79
2023/06/30 11:23:03;;;;;;;6.18;2.10;;;25.00;64.40;;;;;;5066869;28;20024;-77
2023/06/30 11:25:30;;;;;;;4.65;1.13;;;24.90;61.30;;;;;;5069138;28;20104;-78
2023/06/30 11:27:58;;;;;;;8.13;2.05;;;24.90;62.50;;;;;;5058814;28;20024;-77
2023/06/30 11:30:25;;;;;;;4.68;1.33;;;25.00;62.10;;;;;;5066894;28;20048;-77
2023/06/30 11:32:57;;;;;;;4.60;1.52;;;25.10;60.60;;;;;;5052953;28;20144;-78
2023/06/30 11:35:24;;;;;;;3.85;1.20;;;25.10;60.50;;;;;;5069847;28;20389;-77
2023/06/30 11:37:50;;;;;;;6.20;1.33;;;24.90;61.40;;;;;;5069787;28;20490;-77
2023/06/30 11:40:17;;;;;;;6.93;1.77;;;24.80;64.40;;;;;;5069988;28;20060;-77
2023/06/30 11:42:44;;;;;;;3.47;1.30;;;24.80;62.60;;;;;;5056300;28;20032;-76
2023/06/30 11:45:10;;;;;;;3.72;1.00;;;24.90;65.80;;;;;;5069926;28;20031;-76
2023/06/30 11:47:38;;;;;;;4.63;1.67;;;24.90;65.40;;;;;;5068545;28;20032;-77
2023/06/30 11:50:18;;;;;;;6.30;1.45;;;25.20;62.60;;;;;;5070619;28;20020;-76
2023/06/30 11:52:48;;;;;;;;;;;25.50;60.60;;;;;;5066770;28;20135;-77
2023/06/30 11:55:14;;;;;;;4.60;1.50;;;25.90;60.40;;;;;;5063831;28;20294;-75
2023/06/30 11:57:50;;;;;;;7.25;3.03;;;26.20;60.40;;;;;;5057525;28;20490;-75
2023/06/30 12:00:19;;;;;;;3.75;1.27;;;26.50;57.60;;;;;;5055804;28;20032;-76
2023/06/30 12:02:46;;;;;;;3.53;1.20;;;26.50;57.50;;;;;;5058161;28;20477;-77
2023/06/30 12:05:17;;;;;;;3.78;1.13;;;26.60;58.20;;;;;;5060504;28;20040;-76
2023/06/30 12:07:44;;;;;;;4.32;1.42;;;26.80;60.00;;;;;;5055473;28;20019;-76
2023/06/30 12:10:11;;;;;;;3.97;1.25;;;26.90;59.50;;;;;;5069702;28;20021;-76
2023/06/30 12:12:37;;;;;;;4.25;1.33;;;26.80;57.90;;;;;;5069234;28;20017;-76
2023/06/30 12:15:05;;;;;;;5.38;1.23;;;26.70;61.10;;;;;;5058062;28;20343;-77
2023/06/30 12:17:39;;;;;;;3.92;1.60;;;26.70;56.20;;;;;;5057498;28;20479;-76
2023/06/30 12:20:06;;;;;;;5.68;1.52;;;26.70;57.90;;;;;;5063942;28;20086;-76
2023/06/30 12:22:41;;;;;;;5.95;1.45;;;26.80;58.20;;;;;;5063572;28;20059;-75
2023/06/30 12:25:08;;;;;;;3.28;1.83;;;26.80;57.30;;;;;;5065835;28;20053;-77
2023/06/30 12:27:35;;;;;;;3.78;1.27;;;26.90;56.10;;;;;;5064763;28;20370;-76
2023/06/30 12:30:01;;;;;;;6.20;1.85;;;26.90;62.00;;;;;;5047043;28;20021;-76
2023/06/30 12:32:28;;;;;;;5.07;1.73;;;27.00;56.00;;;;;;5055769;28;20064;-76
2023/06/30 12:34:59;;;;;;;7.30;1.88;;;27.00;55.90;;;;;;5066317;28;20047;-77
2023/06/30 12:37:29;;;;;;;4.00;1.80;;;26.90;55.50;;;;;;5064178;28;20686;-76
2023/06/30 12:39:56;;;;;;;6.05;2.30;;;26.90;57.40;;;;;;5067383;28;20020;-76
2023/06/30 12:42:29;;;;;;;4.22;1.20;;;27.00;54.80;;;;;;5051261;28;20815;-76
2023/06/30 12:44:56;;;;;;;3.20;1.13;;;27.20;57.40;;;;;;5061144;28;20028;-78
2023/06/30 12:47:22;;;;;;;3.50;1.60;;;27.40;59.90;;;;;;5067658;28;20078;-77
2023/06/30 12:49:49;;;;;;;3.40;1.63;;;27.40;58.80;;;;;;5058512;28;20025;-76
2023/06/30 12:52:15;;;;;;;4.93;1.50;;;27.30;61.30;;;;;;5065581;28;20024;-78
2023/06/30 12:54:42;;;;;;;4.38;1.35;;;27.40;58.00;;;;;;5058583;28;20031;-77
2023/06/30 12:57:07;;;;;;;3.63;1.08;;;27.40;55.50;;;;;;5072128;28;20035;-77
2023/06/30 12:59:33;;;;;;;4.00;1.58;;;27.60;56.60;;;;;;5057618;28;20103;-76
2023/06/30 13:01:59;;;;;;;3.78;1.40;;;27.50;56.10;;;;;;5073234;28;20027;-77
2023/06/30 13:04:25;;;;;;;3.50;1.52;;;27.20;54.30;;;;;;5069134;28;20483;-77
2023/06/30 13:06:50;;;;;;;6.07;1.35;;;27.20;56.70;;;;;;5069104;28;20024;-80
2023/06/30 13:09:17;;;;;;;6.97;2.38;;;27.20;60.20;;;;;;5069537;28;20035;-75
2023/06/30 13:11:43;;;;;;;3.78;1.00;;;27.30;55.10;;;;;;5068693;28;20029;-78
2023/06/30 13:14:09;;;;;;;4.78;1.52;;;27.10;57.70;;;;;;5066901;28;20085;-77
2023/06/30 13:16:35;;;;;;;5.60;1.55;;;26.80;58.20;;;;;;5068350;28;20036;-76
2023/06/30 13:19:01;;;;;;;2.05;0.95;;;26.50;58.20;;;;;;5068408;28;20028;-76
2023/06/30 13:21:26;;;;;;;4.28;1.63;;;26.30;67.30;;;;;;5070032;28;20555;-77
2023/06/30 13:23:52;;;;;;;6.78;1.98;;;26.20;62.70;;;;;;5069183;28;20528;-76
2023/06/30 13:26:17;;;;;;;3.60;1.40;;;26.20;60.40;;;;;;5067742;28;20406;-77
2023/06/30 13:28:47;;;;;;;2.75;1.40;;;26.20;62.80;;;;;;5067955;28;20058;-78
2023/06/30 13:31:13;;;;;;;6.32;2.15;;;26.20;66.80;;;;;;5068886;28;20025;-77
2023/06/30 13:33:39;;;;;;;4.20;1.63;;;26.30;62.00;;;;;;5062024;28;20047;-78
2023/06/30 13:36:05;;;;;;;5.45;1.67;;;26.50;59.20;;;;;;5056272;28;20024;-77
2023/06/30 13:38:31;;;;;;;4.30;2.05;;;26.40;60.10;;;;;;5054103;28;20552;-76
2023/06/30 13:40:56;;;;;;;5.55;1.70;;;26.30;59.30;;;;;;5068509;28;20072;-77
2023/06/30 13:43:22;;;;;;;5.93;3.08;;;26.30;63.10;;;;;;5066880;28;20032;-76
2023/06/30 13:45:48;;;;;;;4.65;1.73;;;26.20;58.60;;;;;;5066628;28;20490;-79
2023/06/30 13:48:13;;;;;;;7.38;2.53;;;26.20;61.70;;;;;;5066483;28;20016;-78
2023/06/30 13:50:40;;;;;;;4.97;1.48;;;26.20;58.40;;;;;;5066503;28;20043;-77
2023/06/30 13:53:05;;;;;;;3.42;1.55;;;26.30;60.10;;;;;;5066494;28;20074;-77
2023/06/30 13:55:31;;;;;;;3.90;1.80;;;26.40;58.80;;;;;;5067254;28;20033;-78